sensor_id;sensor_type;location;lat;lon;timestamp;P1;durP1;ratioP1;P2;durP2;ratioP2
17424;SDS011;8830;50.978;5.058;2022-07-25T00:00:35;5.65;;;4.25;;
17424;SDS011;8830;50.978;5.058;2022-07-25T00:03:02;6.07;;;4.40;;
17424;SDS011;8830;50.978;5.058;2022-07-25T00:05:29;5.70;;;4.43;;
17424;SDS011;8830;50.978;5.058;2022-07-25T00:07:56;4.90;;;4.53;;
17424;SDS011;8830;50.978;5.058;2022-07-25T00:10:25;5.50;;;4.57;;
17424;SDS011;8830;50.978;5.058;2022-07-25T00:12:52;5.43;;;4.97;;
17424;SDS011;8830;50.978;5.058;2022-07-25T00:15:19;7.72;;;4.80;;
17424;SDS011;8830;50.978;5.058;2022-07-25T00:17:47;5.47;;;4.97;;
17424;SDS011;8830;50.978;5.058;2022-07-25T00:20:14;5.65;;;4.95;;
17424;SDS011;8830;50.978;5.058;2022-07-25T00:22:41;4.93;;;4.20;;
17424;SDS011;8830;50.978;5.058;2022-07-25T00:25:08;6.72;;;6.00;;
17424;SDS011;8830;50.978;5.058;2022-07-25T00:27:37;4.80;;;4.40;;
17424;SDS011;8830;50.978;5.058;2022-07-25T00:30:04;5.00;;;4.60;;
17424;SDS011;8830;50.978;5.058;2022-07-25T00:32:32;7.40;;;4.20;;
17424;SDS011;8830;50.978;5.058;2022-07-25T00:34:59;4.80;;;4.40;;
17424;SDS011;8830;50.978;5.058;2022-07-25T00:37:26;6.97;;;4.82;;
17424;SDS011;8830;50.978;5.058;2022-07-25T00:39:53;4.53;;;4.07;;
17424;SDS011;8830;50.978;5.058;2022-07-25T00:42:21;4.50;;;3.95;;
17424;SDS011;8830;50.978;5.058;2022-07-25T00:44:49;6.10;;;4.90;;
17424;SDS011;8830;50.978;5.058;2022-07-25T00:47:17;7.40;;;5.72;;
17424;SDS011;8830;50.978;5.058;2022-07-25T00:49:44;5.97;;;5.25;;
17424;SDS011;8830;50.978;5.058;2022-07-25T00:52:12;8.43;;;5.20;;
17424;SDS011;8830;50.978;5.058;2022-07-25T00:54:39;5.30;;;4.75;;
17424;SDS011;8830;50.978;5.058;2022-07-25T00:57:07;9.43;;;5.25;;
17424;SDS011;8830;50.978;5.058;2022-07-25T00:59:34;6.13;;;5.53;;
17424;SDS011;8830;50.978;5.058;2022-07-25T01:02:02;5.65;;;5.18;;
17424;SDS011;8830;50.978;5.058;2022-07-25T01:04:31;5.57;;;5.07;;
17424;SDS011;8830;50.978;5.058;2022-07-25T01:06:58;8.00;;;5.68;;
17424;SDS011;8830;50.978;5.058;2022-07-25T01:09:26;6.95;;;5.05;;
17424;SDS011;8830;50.978;5.058;2022-07-25T01:11:53;6.22;;;4.93;;
17424;SDS011;8830;50.978;5.058;2022-07-25T01:14:20;6.68;;;4.70;;
17424;SDS011;8830;50.978;5.058;2022-07-25T01:16:47;5.85;;;5.32;;
17424;SDS011;8830;50.978;5.058;2022-07-25T01:19:16;5.68;;;5.00;;
17424;SDS011;8830;50.978;5.058;2022-07-25T01:21:45;7.85;;;5.25;;
17424;SDS011;8830;50.978;5.058;2022-07-25T01:24:12;5.72;;;5.20;;
17424;SDS011;8830;50.978;5.058;2022-07-25T01:26:39;7.00;;;5.70;;
17424;SDS011;8830;50.978;5.058;2022-07-25T01:29:06;6.40;;;5.13;;
17424;SDS011;8830;50.978;5.058;2022-07-25T01:31:33;5.18;;;4.57;;
17424;SDS011;8830;50.978;5.058;2022-07-25T01:34:01;5.78;;;5.15;;
17424;SDS011;8830;50.978;5.058;2022-07-25T01:36:28;5.53;;;5.03;;
17424;SDS011;8830;50.978;5.058;2022-07-25T01:38:56;10.63;;;5.93;;
17424;SDS011;8830;50.978;5.058;2022-07-25T01:41:23;6.07;;;4.70;;
17424;SDS011;8830;50.978;5.058;2022-07-25T01:43:50;8.65;;;5.15;;
17424;SDS011;8830;50.978;5.058;2022-07-25T01:46:17;7.00;;;5.35;;
17424;SDS011;8830;50.978;5.058;2022-07-25T01:48:44;5.22;;;4.82;;
17424;SDS011;8830;50.978;5.058;2022-07-25T01:51:11;6.13;;;5.13;;
17424;SDS011;8830;50.978;5.058;2022-07-25T01:53:38;5.70;;;5.10;;
17424;SDS011;8830;50.978;5.058;2022-07-25T01:56:07;6.10;;;5.60;;
17424;SDS011;8830;50.978;5.058;2022-07-25T01:58:34;5.97;;;5.38;;
17424;SDS011;8830;50.978;5.058;2022-07-25T02:01:01;10.82;;;5.32;;
17424;SDS011;8830;50.978;5.058;2022-07-25T02:03:29;5.18;;;4.85;;
17424;SDS011;8830;50.978;5.058;2022-07-25T02:05:57;6.45;;;5.10;;
17424;SDS011;8830;50.978;5.058;2022-07-25T02:08:25;5.80;;;5.30;;
17424;SDS011;8830;50.978;5.058;2022-07-25T02:10:52;5.38;;;4.47;;
17424;SDS011;8830;50.978;5.058;2022-07-25T02:13:21;7.80;;;5.22;;
17424;SDS011;8830;50.978;5.058;2022-07-25T02:15:48;5.65;;;4.80;;
17424;SDS011;8830;50.978;5.058;2022-07-25T02:18:15;5.88;;;5.28;;
17424;SDS011;8830;50.978;5.058;2022-07-25T02:20:42;6.15;;;5.65;;
17424;SDS011;8830;50.978;5.058;2022-07-25T02:23:09;6.70;;;5.55;;
17424;SDS011;8830;50.978;5.058;2022-07-25T02:25:36;5.88;;;5.35;;
17424;SDS011;8830;50.978;5.058;2022-07-25T02:28:03;5.32;;;4.93;;
17424;SDS011;8830;50.978;5.058;2022-07-25T02:30:32;5.72;;;5.13;;
17424;SDS011;8830;50.978;5.058;2022-07-25T02:32:59;5.20;;;4.70;;
17424;SDS011;8830;50.978;5.058;2022-07-25T02:35:26;5.97;;;5.40;;
17424;SDS011;8830;50.978;5.058;2022-07-25T02:37:54;6.45;;;5.88;;
17424;SDS011;8830;50.978;5.058;2022-07-25T02:40:21;6.03;;;5.43;;
17424;SDS011;8830;50.978;5.058;2022-07-25T02:42:48;10.65;;;5.13;;
17424;SDS011;8830;50.978;5.058;2022-07-25T02:45:15;6.07;;;5.47;;
17424;SDS011;8830;50.978;5.058;2022-07-25T02:47:43;6.28;;;5.22;;
17424;SDS011;8830;50.978;5.058;2022-07-25T02:50:11;7.22;;;5.57;;
17424;SDS011;8830;50.978;5.058;2022-07-25T02:52:38;6.30;;;5.70;;
17424;SDS011;8830;50.978;5.058;2022-07-25T02:55:06;5.78;;;5.28;;
17424;SDS011;8830;50.978;5.058;2022-07-25T02:57:34;6.15;;;5.50;;
17424;SDS011;8830;50.978;5.058;2022-07-25T03:00:01;5.10;;;4.70;;
17424;SDS011;8830;50.978;5.058;2022-07-25T03:02:29;9.40;;;4.90;;
17424;SDS011;8830;50.978;5.058;2022-07-25T03:04:58;6.13;;;5.55;;
17424;SDS011;8830;50.978;5.058;2022-07-25T03:07:25;8.50;;;5.53;;
17424;SDS011;8830;50.978;5.058;2022-07-25T03:09:52;5.70;;;5.20;;
17424;SDS011;8830;50.978;5.058;2022-07-25T03:12:19;5.35;;;4.95;;
17424;SDS011;8830;50.978;5.058;2022-07-25T03:14:46;5.22;;;4.72;;
17424;SDS011;8830;50.978;5.058;2022-07-25T03:17:14;5.25;;;4.85;;
17424;SDS011;8830;50.978;5.058;2022-07-25T03:19:41;9.27;;;5.13;;
17424;SDS011;8830;50.978;5.058;2022-07-25T03:22:09;6.45;;;5.20;;
17424;SDS011;8830;50.978;5.058;2022-07-25T03:24:37;13.73;;;5.03;;
17424;SDS011;8830;50.978;5.058;2022-07-25T03:27:04;7.57;;;5.63;;
17424;SDS011;8830;50.978;5.058;2022-07-25T03:29:31;7.03;;;4.72;;
17424;SDS011;8830;50.978;5.058;2022-07-25T03:31:59;5.55;;;5.05;;
17424;SDS011;8830;50.978;5.058;2022-07-25T03:34:27;5.78;;;4.80;;
17424;SDS011;8830;50.978;5.058;2022-07-25T03:36:54;5.40;;;4.90;;
17424;SDS011;8830;50.978;5.058;2022-07-25T03:39:22;7.15;;;4.93;;
17424;SDS011;8830;50.978;5.058;2022-07-25T03:41:49;5.40;;;4.90;;
17424;SDS011;8830;50.978;5.058;2022-07-25T03:44:17;5.32;;;4.93;;
17424;SDS011;8830;50.978;5.058;2022-07-25T03:46:44;5.85;;;5.28;;
17424;SDS011;8830;50.978;5.058;2022-07-25T03:49:11;5.80;;;4.97;;
17424;SDS011;8830;50.978;5.058;2022-07-25T03:51:38;6.97;;;4.95;;
17424;SDS011;8830;50.978;5.058;2022-07-25T03:54:06;5.05;;;4.65;;
17424;SDS011;8830;50.978;5.058;2022-07-25T03:56:39;11.05;;;4.88;;
17424;SDS011;8830;50.978;5.058;2022-07-25T03:59:08;5.03;;;4.68;;
17424;SDS011;8830;50.978;5.058;2022-07-25T04:01:36;6.03;;;4.72;;
17424;SDS011;8830;50.978;5.058;2022-07-25T04:04:03;5.03;;;4.53;;
17424;SDS011;8830;50.978;5.058;2022-07-25T04:06:31;7.57;;;5.00;;
17424;SDS011;8830;50.978;5.058;2022-07-25T04:08:58;6.65;;;4.95;;
17424;SDS011;8830;50.978;5.058;2022-07-25T04:11:26;5.88;;;5.47;;
17424;SDS011;8830;50.978;5.058;2022-07-25T04:13:56;5.32;;;4.82;;
17424;SDS011;8830;50.978;5.058;2022-07-25T04:16:25;5.22;;;4.72;;
17424;SDS011;8830;50.978;5.058;2022-07-25T04:18:52;5.90;;;5.28;;
17424;SDS011;8830;50.978;5.058;2022-07-25T04:21:19;5.05;;;4.60;;
17424;SDS011;8830;50.978;5.058;2022-07-25T04:23:46;5.78;;;4.93;;
17424;SDS011;8830;50.978;5.058;2022-07-25T04:26:14;5.40;;;5.00;;
17424;SDS011;8830;50.978;5.058;2022-07-25T04:28:41;7.10;;;5.13;;
17424;SDS011;8830;50.978;5.058;2022-07-25T04:31:10;5.65;;;5.15;;
17424;SDS011;8830;50.978;5.058;2022-07-25T04:33:38;8.13;;;4.90;;
17424;SDS011;8830;50.978;5.058;2022-07-25T04:36:06;7.30;;;5.30;;
17424;SDS011;8830;50.978;5.058;2022-07-25T04:38:33;5.40;;;4.90;;
17424;SDS011;8830;50.978;5.058;2022-07-25T04:41:00;6.50;;;5.05;;
17424;SDS011;8830;50.978;5.058;2022-07-25T04:43:28;5.88;;;5.38;;
17424;SDS011;8830;50.978;5.058;2022-07-25T04:45:55;5.75;;;5.15;;
17424;SDS011;8830;50.978;5.058;2022-07-25T04:48:25;5.47;;;5.05;;
17424;SDS011;8830;50.978;5.058;2022-07-25T04:50:52;5.70;;;5.28;;
17424;SDS011;8830;50.978;5.058;2022-07-25T04:53:20;5.53;;;5.03;;
17424;SDS011;8830;50.978;5.058;2022-07-25T04:55:47;6.07;;;5.65;;
17424;SDS011;8830;50.978;5.058;2022-07-25T04:58:14;5.78;;;5.38;;
17424;SDS011;8830;50.978;5.058;2022-07-25T05:00:44;8.23;;;6.13;;
17424;SDS011;8830;50.978;5.058;2022-07-25T05:03:11;7.30;;;4.90;;
17424;SDS011;8830;50.978;5.058;2022-07-25T05:05:39;6.53;;;5.93;;
17424;SDS011;8830;50.978;5.058;2022-07-25T05:08:06;5.55;;;5.05;;
17424;SDS011;8830;50.978;5.058;2022-07-25T05:10:34;7.03;;;5.25;;
17424;SDS011;8830;50.978;5.058;2022-07-25T05:13:01;5.88;;;5.30;;
17424;SDS011;8830;50.978;5.058;2022-07-25T05:15:28;5.35;;;4.95;;
17424;SDS011;8830;50.978;5.058;2022-07-25T05:17:56;5.88;;;5.40;;
17424;SDS011;8830;50.978;5.058;2022-07-25T05:20:24;4.80;;;4.40;;
17424;SDS011;8830;50.978;5.058;2022-07-25T05:22:53;7.20;;;5.45;;
17424;SDS011;8830;50.978;5.058;2022-07-25T05:25:22;5.63;;;5.07;;
17424;SDS011;8830;50.978;5.058;2022-07-25T05:28:01;5.28;;;4.88;;
17424;SDS011;8830;50.978;5.058;2022-07-25T05:30:29;5.78;;;4.95;;
17424;SDS011;8830;50.978;5.058;2022-07-25T05:35:54;5.82;;;5.22;;
17424;SDS011;8830;50.978;5.058;2022-07-25T05:42:20;6.43;;;5.30;;
17424;SDS011;8830;50.978;5.058;2022-07-25T05:44:53;5.38;;;4.90;;
17424;SDS011;8830;50.978;5.058;2022-07-25T05:50:22;6.18;;;4.78;;
17424;SDS011;8830;50.978;5.058;2022-07-25T05:52:59;5.53;;;4.93;;
17424;SDS011;8830;50.978;5.058;2022-07-25T05:55:54;5.70;;;4.15;;
17424;SDS011;8830;50.978;5.058;2022-07-25T06:04:06;3.85;;;3.50;;
17424;SDS011;8830;50.978;5.058;2022-07-25T06:06:45;5.80;;;3.65;;
17424;SDS011;8830;50.978;5.058;2022-07-25T06:09:54;3.88;;;3.50;;
17424;SDS011;8830;50.978;5.058;2022-07-25T06:19:39;4.40;;;3.30;;
17424;SDS011;8830;50.978;5.058;2022-07-25T06:22:42;3.67;;;3.10;;
17424;SDS011;8830;50.978;5.058;2022-07-25T06:25:12;4.15;;;3.30;;
17424;SDS011;8830;50.978;5.058;2022-07-25T06:27:43;4.35;;;3.38;;
17424;SDS011;8830;50.978;5.058;2022-07-25T06:30:18;3.75;;;3.30;;
17424;SDS011;8830;50.978;5.058;2022-07-25T06:32:50;7.18;;;3.55;;
17424;SDS011;8830;50.978;5.058;2022-07-25T06:35:21;6.25;;;3.40;;
17424;SDS011;8830;50.978;5.058;2022-07-25T06:37:55;7.25;;;3.17;;
17424;SDS011;8830;50.978;5.058;2022-07-25T06:40:26;4.78;;;2.90;;
17424;SDS011;8830;50.978;5.058;2022-07-25T06:43:05;4.72;;;2.63;;
17424;SDS011;8830;50.978;5.058;2022-07-25T06:45:53;5.13;;;3.40;;
17424;SDS011;8830;50.978;5.058;2022-07-25T06:48:21;6.35;;;2.97;;
17424;SDS011;8830;50.978;5.058;2022-07-25T06:51:00;4.80;;;2.70;;
17424;SDS011;8830;50.978;5.058;2022-07-25T06:56:01;4.28;;;3.15;;
17424;SDS011;8830;50.978;5.058;2022-07-25T06:58:42;2.53;;;2.30;;
17424;SDS011;8830;50.978;5.058;2022-07-25T07:01:12;5.65;;;2.78;;
17424;SDS011;8830;50.978;5.058;2022-07-25T07:03:42;7.03;;;2.63;;
17424;SDS011;8830;50.978;5.058;2022-07-25T07:06:12;5.28;;;2.80;;
17424;SDS011;8830;50.978;5.058;2022-07-25T07:08:39;4.40;;;3.00;;
17424;SDS011;8830;50.978;5.058;2022-07-25T07:11:06;6.43;;;2.83;;
17424;SDS011;8830;50.978;5.058;2022-07-25T07:13:33;4.32;;;2.70;;
17424;SDS011;8830;50.978;5.058;2022-07-25T07:16:03;4.00;;;2.85;;
17424;SDS011;8830;50.978;5.058;2022-07-25T07:18:37;4.55;;;2.92;;
17424;SDS011;8830;50.978;5.058;2022-07-25T07:21:08;7.63;;;2.55;;
17424;SDS011;8830;50.978;5.058;2022-07-25T07:26:18;5.03;;;4.13;;
17424;SDS011;8830;50.978;5.058;2022-07-25T07:28:55;3.83;;;2.40;;
17424;SDS011;8830;50.978;5.058;2022-07-25T07:34:25;5.93;;;2.42;;
17424;SDS011;8830;50.978;5.058;2022-07-25T07:40:25;3.80;;;2.10;;
17424;SDS011;8830;50.978;5.058;2022-07-25T07:45:54;5.07;;;2.78;;
17424;SDS011;8830;50.978;5.058;2022-07-25T07:48:34;2.90;;;1.75;;
17424;SDS011;8830;50.978;5.058;2022-07-25T07:51:25;3.08;;;1.90;;
17424;SDS011;8830;50.978;5.058;2022-07-25T07:57:29;5.43;;;2.05;;
17424;SDS011;8830;50.978;5.058;2022-07-25T08:03:09;4.40;;;2.40;;
17424;SDS011;8830;50.978;5.058;2022-07-25T08:06:00;3.75;;;2.25;;
17424;SDS011;8830;50.978;5.058;2022-07-25T08:08:46;6.72;;;2.35;;
17424;SDS011;8830;50.978;5.058;2022-07-25T08:11:24;8.02;;;2.33;;
17424;SDS011;8830;50.978;5.058;2022-07-25T08:14:39;2.67;;;2.00;;
17424;SDS011;8830;50.978;5.058;2022-07-25T08:21:20;3.47;;;1.70;;
17424;SDS011;8830;50.978;5.058;2022-07-25T08:24:21;3.85;;;1.80;;
17424;SDS011;8830;50.978;5.058;2022-07-25T08:44:10;3.78;;;1.77;;
17424;SDS011;8830;50.978;5.058;2022-07-25T08:46:39;2.83;;;1.42;;
17424;SDS011;8830;50.978;5.058;2022-07-25T08:49:07;2.58;;;1.88;;
17424;SDS011;8830;50.978;5.058;2022-07-25T08:51:34;5.60;;;1.80;;
17424;SDS011;8830;50.978;5.058;2022-07-25T08:54:12;3.08;;;1.40;;
17424;SDS011;8830;50.978;5.058;2022-07-25T08:56:42;2.45;;;1.50;;
17424;SDS011;8830;50.978;5.058;2022-07-25T08:59:19;7.47;;;6.88;;
17424;SDS011;8830;50.978;5.058;2022-07-25T09:01:51;2.15;;;1.60;;
17424;SDS011;8830;50.978;5.058;2022-07-25T09:04:20;4.45;;;1.33;;
17424;SDS011;8830;50.978;5.058;2022-07-25T09:06:48;2.67;;;1.73;;
17424;SDS011;8830;50.978;5.058;2022-07-25T09:09:16;4.15;;;1.73;;
17424;SDS011;8830;50.978;5.058;2022-07-25T09:11:44;2.72;;;1.48;;
17424;SDS011;8830;50.978;5.058;2022-07-25T09:14:15;3.05;;;1.33;;
17424;SDS011;8830;50.978;5.058;2022-07-25T09:16:48;1.50;;;1.40;;
17424;SDS011;8830;50.978;5.058;2022-07-25T09:19:21;3.00;;;1.17;;
17424;SDS011;8830;50.978;5.058;2022-07-25T09:22:01;2.05;;;1.30;;
17424;SDS011;8830;50.978;5.058;2022-07-25T09:24:46;2.50;;;1.50;;
17424;SDS011;8830;50.978;5.058;2022-07-25T09:27:17;4.50;;;1.48;;
17424;SDS011;8830;50.978;5.058;2022-07-25T09:29:44;1.95;;;1.33;;
17424;SDS011;8830;50.978;5.058;2022-07-25T09:32:15;2.92;;;1.55;;
17424;SDS011;8830;50.978;5.058;2022-07-25T09:34:46;1.55;;;1.08;;
17424;SDS011;8830;50.978;5.058;2022-07-25T09:37:24;2.58;;;1.45;;
17424;SDS011;8830;50.978;5.058;2022-07-25T09:40:10;2.10;;;1.42;;
17424;SDS011;8830;50.978;5.058;2022-07-25T09:45:47;3.25;;;1.40;;
17424;SDS011;8830;50.978;5.058;2022-07-25T09:48:21;1.70;;;1.40;;
17424;SDS011;8830;50.978;5.058;2022-07-25T09:50:57;2.22;;;1.63;;
17424;SDS011;8830;50.978;5.058;2022-07-25T09:53:28;2.45;;;1.42;;
17424;SDS011;8830;50.978;5.058;2022-07-25T09:56:02;1.90;;;1.40;;
17424;SDS011;8830;50.978;5.058;2022-07-25T09:58:33;3.10;;;1.50;;
17424;SDS011;8830;50.978;5.058;2022-07-25T10:01:04;2.47;;;1.50;;
17424;SDS011;8830;50.978;5.058;2022-07-25T10:03:41;4.18;;;1.33;;
17424;SDS011;8830;50.978;5.058;2022-07-25T10:06:37;2.95;;;1.30;;
17424;SDS011;8830;50.978;5.058;2022-07-25T10:09:13;2.85;;;1.40;;
17424;SDS011;8830;50.978;5.058;2022-07-25T10:14:40;1.80;;;1.33;;
17424;SDS011;8830;50.978;5.058;2022-07-25T10:17:18;3.08;;;1.40;;
17424;SDS011;8830;50.978;5.058;2022-07-25T10:19:49;3.65;;;1.63;;
17424;SDS011;8830;50.978;5.058;2022-07-25T10:22:22;1.80;;;1.50;;
17424;SDS011;8830;50.978;5.058;2022-07-25T10:25:06;3.88;;;1.30;;
17424;SDS011;8830;50.978;5.058;2022-07-25T10:27:48;1.63;;;1.25;;
17424;SDS011;8830;50.978;5.058;2022-07-25T10:30:24;3.33;;;1.23;;
17424;SDS011;8830;50.978;5.058;2022-07-25T10:32:56;4.20;;;1.90;;
17424;SDS011;8830;50.978;5.058;2022-07-25T10:35:31;2.10;;;1.50;;
17424;SDS011;8830;50.978;5.058;2022-07-25T10:38:09;3.30;;;1.70;;
17424;SDS011;8830;50.978;5.058;2022-07-25T10:40:40;2.08;;;1.08;;
17424;SDS011;8830;50.978;5.058;2022-07-25T10:43:17;2.17;;;1.33;;
17424;SDS011;8830;50.978;5.058;2022-07-25T10:45:51;6.03;;;1.35;;
17424;SDS011;8830;50.978;5.058;2022-07-25T10:48:36;3.47;;;1.80;;
17424;SDS011;8830;50.978;5.058;2022-07-25T10:51:17;1.95;;;1.58;;
17424;SDS011;8830;50.978;5.058;2022-07-25T10:53:58;4.15;;;1.52;;
17424;SDS011;8830;50.978;5.058;2022-07-25T10:56:35;4.75;;;1.75;;
17424;SDS011;8830;50.978;5.058;2022-07-25T10:59:28;1.55;;;1.30;;
17424;SDS011;8830;50.978;5.058;2022-07-25T11:02:06;3.63;;;1.30;;
17424;SDS011;8830;50.978;5.058;2022-07-25T11:04:41;1.40;;;1.30;;
17424;SDS011;8830;50.978;5.058;2022-07-25T11:07:18;2.13;;;1.42;;
17424;SDS011;8830;50.978;5.058;2022-07-25T11:10:10;1.70;;;1.30;;
17424;SDS011;8830;50.978;5.058;2022-07-25T11:12:53;2.17;;;1.60;;
17424;SDS011;8830;50.978;5.058;2022-07-25T11:15:40;2.33;;;1.70;;
17424;SDS011;8830;50.978;5.058;2022-07-25T11:18:15;2.03;;;1.83;;
17424;SDS011;8830;50.978;5.058;2022-07-25T11:20:57;2.88;;;1.40;;
17424;SDS011;8830;50.978;5.058;2022-07-25T11:23:29;3.30;;;1.50;;
17424;SDS011;8830;50.978;5.058;2022-07-25T11:26:08;1.52;;;1.40;;
17424;SDS011;8830;50.978;5.058;2022-07-25T11:28:41;2.78;;;1.58;;
17424;SDS011;8830;50.978;5.058;2022-07-25T11:31:26;4.38;;;2.33;;
17424;SDS011;8830;50.978;5.058;2022-07-25T11:33:57;2.67;;;1.63;;
17424;SDS011;8830;50.978;5.058;2022-07-25T11:36:31;4.72;;;1.73;;
17424;SDS011;8830;50.978;5.058;2022-07-25T11:39:01;3.03;;;1.40;;
17424;SDS011;8830;50.978;5.058;2022-07-25T11:41:32;4.45;;;2.20;;
17424;SDS011;8830;50.978;5.058;2022-07-25T11:44:01;2.20;;;1.80;;
17424;SDS011;8830;50.978;5.058;2022-07-25T11:46:52;5.35;;;1.85;;
17424;SDS011;8830;50.978;5.058;2022-07-25T11:49:25;5.80;;;2.03;;
17424;SDS011;8830;50.978;5.058;2022-07-25T11:51:58;2.67;;;1.60;;
17424;SDS011;8830;50.978;5.058;2022-07-25T11:54:32;6.20;;;2.13;;
17424;SDS011;8830;50.978;5.058;2022-07-25T11:57:01;4.35;;;2.10;;
17424;SDS011;8830;50.978;5.058;2022-07-25T11:59:40;4.63;;;1.70;;
17424;SDS011;8830;50.978;5.058;2022-07-25T12:02:29;5.03;;;2.00;;
17424;SDS011;8830;50.978;5.058;2022-07-25T12:05:01;2.35;;;1.98;;
17424;SDS011;8830;50.978;5.058;2022-07-25T12:07:41;2.67;;;1.77;;
17424;SDS011;8830;50.978;5.058;2022-07-25T12:10:30;5.50;;;2.47;;
17424;SDS011;8830;50.978;5.058;2022-07-25T12:13:03;3.35;;;2.40;;
17424;SDS011;8830;50.978;5.058;2022-07-25T12:15:36;2.83;;;1.90;;
17424;SDS011;8830;50.978;5.058;2022-07-25T12:18:11;4.80;;;1.98;;
17424;SDS011;8830;50.978;5.058;2022-07-25T12:20:57;4.78;;;2.30;;
17424;SDS011;8830;50.978;5.058;2022-07-25T12:26:46;4.22;;;1.65;;
17424;SDS011;8830;50.978;5.058;2022-07-25T12:29:41;6.90;;;1.85;;
17424;SDS011;8830;50.978;5.058;2022-07-25T12:38:48;4.60;;;1.90;;
17424;SDS011;8830;50.978;5.058;2022-07-25T12:41:39;4.30;;;1.70;;
17424;SDS011;8830;50.978;5.058;2022-07-25T12:47:28;2.20;;;1.70;;
17424;SDS011;8830;50.978;5.058;2022-07-25T12:50:06;3.75;;;1.90;;
17424;SDS011;8830;50.978;5.058;2022-07-25T12:56:23;3.35;;;1.40;;
17424;SDS011;8830;50.978;5.058;2022-07-25T12:58:58;4.28;;;1.95;;
17424;SDS011;8830;50.978;5.058;2022-07-25T13:01:40;5.03;;;1.65;;
17424;SDS011;8830;50.978;5.058;2022-07-25T13:04:10;2.47;;;1.48;;
17424;SDS011;8830;50.978;5.058;2022-07-25T13:06:44;3.10;;;1.50;;
17424;SDS011;8830;50.978;5.058;2022-07-25T13:09:18;5.20;;;1.90;;
17424;SDS011;8830;50.978;5.058;2022-07-25T13:11:50;5.22;;;1.75;;
17424;SDS011;8830;50.978;5.058;2022-07-25T13:14:18;3.15;;;1.50;;
17424;SDS011;8830;50.978;5.058;2022-07-25T13:16:48;4.03;;;1.75;;
17424;SDS011;8830;50.978;5.058;2022-07-25T13:19:17;4.55;;;1.60;;
17424;SDS011;8830;50.978;5.058;2022-07-25T13:21:48;1.45;;;1.33;;
17424;SDS011;8830;50.978;5.058;2022-07-25T13:24:17;5.88;;;2.10;;
17424;SDS011;8830;50.978;5.058;2022-07-25T13:26:45;4.93;;;1.70;;
17424;SDS011;8830;50.978;5.058;2022-07-25T13:29:19;4.97;;;2.05;;
17424;SDS011;8830;50.978;5.058;2022-07-25T13:31:48;5.43;;;2.05;;
17424;SDS011;8830;50.978;5.058;2022-07-25T13:34:16;4.47;;;1.60;;
17424;SDS011;8830;50.978;5.058;2022-07-25T13:36:45;3.05;;;2.08;;
17424;SDS011;8830;50.978;5.058;2022-07-25T13:39:13;6.15;;;2.45;;
17424;SDS011;8830;50.978;5.058;2022-07-25T13:41:40;3.50;;;1.60;;
17424;SDS011;8830;50.978;5.058;2022-07-25T13:44:11;3.42;;;1.83;;
17424;SDS011;8830;50.978;5.058;2022-07-25T13:46:42;4.60;;;1.90;;
17424;SDS011;8830;50.978;5.058;2022-07-25T13:49:13;2.70;;;1.60;;
17424;SDS011;8830;50.978;5.058;2022-07-25T13:51:40;5.25;;;2.30;;
17424;SDS011;8830;50.978;5.058;2022-07-25T13:54:10;3.80;;;1.45;;
17424;SDS011;8830;50.978;5.058;2022-07-25T13:56:38;4.35;;;2.00;;
17424;SDS011;8830;50.978;5.058;2022-07-25T13:59:06;3.90;;;1.85;;
17424;SDS011;8830;50.978;5.058;2022-07-25T14:01:34;3.75;;;1.73;;
17424;SDS011;8830;50.978;5.058;2022-07-25T14:04:04;2.08;;;1.38;;
17424;SDS011;8830;50.978;5.058;2022-07-25T14:06:35;4.68;;;1.88;;
17424;SDS011;8830;50.978;5.058;2022-07-25T14:09:02;4.50;;;2.13;;
17424;SDS011;8830;50.978;5.058;2022-07-25T14:11:30;3.65;;;1.77;;
17424;SDS011;8830;50.978;5.058;2022-07-25T14:13:57;4.05;;;1.67;;
17424;SDS011;8830;50.978;5.058;2022-07-25T14:16:24;8.38;;;2.22;;
17424;SDS011;8830;50.978;5.058;2022-07-25T14:18:51;6.55;;;1.67;;
17424;SDS011;8830;50.978;5.058;2022-07-25T14:21:21;3.60;;;1.90;;
17424;SDS011;8830;50.978;5.058;2022-07-25T14:23:48;6.30;;;2.17;;
17424;SDS011;8830;50.978;5.058;2022-07-25T14:26:15;4.90;;;1.92;;
17424;SDS011;8830;50.978;5.058;2022-07-25T14:28:42;3.67;;;1.45;;
17424;SDS011;8830;50.978;5.058;2022-07-25T14:31:10;3.72;;;1.73;;
17424;SDS011;8830;50.978;5.058;2022-07-25T14:33:37;2.47;;;1.38;;
17424;SDS011;8830;50.978;5.058;2022-07-25T14:36:05;3.70;;;1.77;;
17424;SDS011;8830;50.978;5.058;2022-07-25T14:38:34;3.45;;;1.70;;
17424;SDS011;8830;50.978;5.058;2022-07-25T14:41:02;9.98;;;1.85;;
17424;SDS011;8830;50.978;5.058;2022-07-25T14:43:35;5.45;;;2.00;;
17424;SDS011;8830;50.978;5.058;2022-07-25T14:46:03;4.40;;;1.80;;
17424;SDS011;8830;50.978;5.058;2022-07-25T14:48:37;8.15;;;1.58;;
17424;SDS011;8830;50.978;5.058;2022-07-25T14:51:05;4.95;;;1.90;;
17424;SDS011;8830;50.978;5.058;2022-07-25T14:53:34;2.95;;;1.70;;
17424;SDS011;8830;50.978;5.058;2022-07-25T14:56:06;2.38;;;1.30;;
17424;SDS011;8830;50.978;5.058;2022-07-25T14:58:45;2.80;;;1.50;;
17424;SDS011;8830;50.978;5.058;2022-07-25T15:01:13;4.07;;;1.55;;
17424;SDS011;8830;50.978;5.058;2022-07-25T15:03:44;2.72;;;1.20;;
17424;SDS011;8830;50.978;5.058;2022-07-25T15:06:14;5.45;;;1.50;;
17424;SDS011;8830;50.978;5.058;2022-07-25T15:11:33;2.75;;;1.05;;
17424;SDS011;8830;50.978;5.058;2022-07-25T15:16:32;3.60;;;1.10;;
17424;SDS011;8830;50.978;5.058;2022-07-25T15:19:03;7.63;;;1.58;;
17424;SDS011;8830;50.978;5.058;2022-07-25T15:21:32;7.07;;;1.90;;
17424;SDS011;8830;50.978;5.058;2022-07-25T15:24:06;7.13;;;1.40;;
17424;SDS011;8830;50.978;5.058;2022-07-25T15:26:34;2.65;;;1.25;;
17424;SDS011;8830;50.978;5.058;2022-07-25T15:29:04;6.10;;;1.52;;
17424;SDS011;8830;50.978;5.058;2022-07-25T15:31:33;4.50;;;1.20;;
17424;SDS011;8830;50.978;5.058;2022-07-25T15:34:01;3.08;;;1.15;;
17424;SDS011;8830;50.978;5.058;2022-07-25T15:36:29;4.25;;;1.25;;
17424;SDS011;8830;50.978;5.058;2022-07-25T15:38:58;5.03;;;1.13;;
17424;SDS011;8830;50.978;5.058;2022-07-25T15:41:30;2.67;;;1.30;;
17424;SDS011;8830;50.978;5.058;2022-07-25T15:44:03;3.42;;;1.05;;
17424;SDS011;8830;50.978;5.058;2022-07-25T15:46:31;4.63;;;1.25;;
17424;SDS011;8830;50.978;5.058;2022-07-25T15:49:08;4.22;;;1.00;;
17424;SDS011;8830;50.978;5.058;2022-07-25T15:51:37;6.85;;;1.70;;
17424;SDS011;8830;50.978;5.058;2022-07-25T15:54:14;5.72;;;1.38;;
17424;SDS011;8830;50.978;5.058;2022-07-25T15:56:45;3.22;;;1.38;;
17424;SDS011;8830;50.978;5.058;2022-07-25T15:59:19;6.03;;;1.17;;
17424;SDS011;8830;50.978;5.058;2022-07-25T16:01:55;11.07;;;2.08;;
17424;SDS011;8830;50.978;5.058;2022-07-25T16:04:25;4.30;;;0.70;;
17424;SDS011;8830;50.978;5.058;2022-07-25T16:07:01;2.65;;;0.98;;
17424;SDS011;8830;50.978;5.058;2022-07-25T16:12:20;2.20;;;1.10;;
17424;SDS011;8830;50.978;5.058;2022-07-25T16:14:59;4.78;;;0.95;;
17424;SDS011;8830;50.978;5.058;2022-07-25T16:17:47;1.73;;;0.70;;
17424;SDS011;8830;50.978;5.058;2022-07-25T16:20:23;6.00;;;1.10;;
17424;SDS011;8830;50.978;5.058;2022-07-25T16:23:24;2.72;;;0.70;;
17424;SDS011;8830;50.978;5.058;2022-07-25T16:29:05;4.70;;;1.00;;
17424;SDS011;8830;50.978;5.058;2022-07-25T16:31:36;4.72;;;0.80;;
17424;SDS011;8830;50.978;5.058;2022-07-25T16:34:06;1.95;;;0.95;;
17424;SDS011;8830;50.978;5.058;2022-07-25T16:36:34;2.45;;;0.95;;
17424;SDS011;8830;50.978;5.058;2022-07-25T16:39:01;7.00;;;1.15;;
17424;SDS011;8830;50.978;5.058;2022-07-25T16:41:33;2.95;;;0.75;;
17424;SDS011;8830;50.978;5.058;2022-07-25T16:44:04;2.38;;;0.75;;
17424;SDS011;8830;50.978;5.058;2022-07-25T16:46:38;1.45;;;0.95;;
17424;SDS011;8830;50.978;5.058;2022-07-25T16:49:08;6.28;;;1.20;;
17424;SDS011;8830;50.978;5.058;2022-07-25T16:51:40;3.72;;;0.85;;
17424;SDS011;8830;50.978;5.058;2022-07-25T16:54:08;1.45;;;0.70;;
17424;SDS011;8830;50.978;5.058;2022-07-25T17:02:46;2.95;;;0.77;;
17424;SDS011;8830;50.978;5.058;2022-07-25T17:05:21;4.07;;;0.65;;
17424;SDS011;8830;50.978;5.058;2022-07-25T17:07:56;2.70;;;1.00;;
17424;SDS011;8830;50.978;5.058;2022-07-25T17:10:36;3.72;;;0.80;;
17424;SDS011;8830;50.978;5.058;2022-07-25T17:13:07;1.73;;;0.75;;